sensor_id;sensor_type;location;lat;lon;timestamp;temperature;humidity
2391;DHT22;22957;50.824;4.360;2023-04-30T00:01:54;11.70;99.90
2391;DHT22;22957;50.824;4.360;2023-04-30T00:04:20;11.50;99.90
2391;DHT22;22957;50.824;4.360;2023-04-30T00:06:45;11.70;99.90
2391;DHT22;22957;50.824;4.360;2023-04-30T00:09:11;11.80;99.90
2391;DHT22;22957;50.824;4.360;2023-04-30T00:11:37;12.10;99.90
2391;DHT22;22957;50.824;4.360;2023-04-30T00:14:02;12.10;99.90
2391;DHT22;22957;50.824;4.360;2023-04-30T00:16:28;11.80;99.90
2391;DHT22;22957;50.824;4.360;2023-04-30T00:18:54;11.80;99.90
2391;DHT22;22957;50.824;4.360;2023-04-30T00:21:19;12.20;99.90
2391;DHT22;22957;50.824;4.360;2023-04-30T00:23:45;12.20;99.90
2391;DHT22;22957;50.824;4.360;2023-04-30T00:26:11;12.10;99.90
2391;DHT22;22957;50.824;4.360;2023-04-30T00:28:36;12.10;99.90
2391;DHT22;22957;50.824;4.360;2023-04-30T00:31:02;11.80;99.90
2391;DHT22;22957;50.824;4.360;2023-04-30T00:33:31;11.40;99.90
2391;DHT22;22957;50.824;4.360;2023-04-30T00:35:56;11.50;99.90
2391;DHT22;22957;50.824;4.360;2023-04-30T00:38:22;11.40;99.90
2391;DHT22;22957;50.824;4.360;2023-04-30T00:40:48;11.30;99.90
2391;DHT22;22957;50.824;4.360;2023-04-30T00:43:14;11.60;99.90
2391;DHT22;22957;50.824;4.360;2023-04-30T00:45:39;11.30;99.90
2391;DHT22;22957;50.824;4.360;2023-04-30T00:48:05;10.80;99.90
2391;DHT22;22957;50.824;4.360;2023-04-30T00:50:32;11.00;99.90
2391;DHT22;22957;50.824;4.360;2023-04-30T00:53:00;11.00;99.90
2391;DHT22;22957;50.824;4.360;2023-04-30T00:55:25;10.80;99.90
2391;DHT22;22957;50.824;4.360;2023-04-30T00:57:52;10.60;99.90
2391;DHT22;22957;50.824;4.360;2023-04-30T01:00:18;10.50;99.90
2391;DHT22;22957;50.824;4.360;2023-04-30T01:02:43;10.30;99.90
2391;DHT22;22957;50.824;4.360;2023-04-30T01:05:09;10.10;99.90
2391;DHT22;22957;50.824;4.360;2023-04-30T01:07:35;10.00;99.90
2391;DHT22;22957;50.824;4.360;2023-04-30T01:10:10;10.30;99.90
2391;DHT22;22957;50.824;4.360;2023-04-30T01:12:49;10.10;99.90
2391;DHT22;22957;50.824;4.360;2023-04-30T01:18:06;10.00;99.90
2391;DHT22;22957;50.824;4.360;2023-04-30T01:20:38;10.20;99.90
2391;DHT22;22957;50.824;4.360;2023-04-30T01:25:58;10.20;99.90
2391;DHT22;22957;50.824;4.360;2023-04-30T01:28:27;10.10;99.90
2391;DHT22;22957;50.824;4.360;2023-04-30T01:30:52;10.20;99.90
2391;DHT22;22957;50.824;4.360;2023-04-30T01:33:18;10.40;99.90
2391;DHT22;22957;50.824;4.360;2023-04-30T01:39:14;10.10;99.90
2391;DHT22;22957;50.824;4.360;2023-04-30T01:41:55;10.20;99.90
2391;DHT22;22957;50.824;4.360;2023-04-30T01:44:34;10.40;99.90
2391;DHT22;22957;50.824;4.360;2023-04-30T01:47:14;10.10;99.90
2391;DHT22;22957;50.824;4.360;2023-04-30T01:52:54;10.30;99.90
2391;DHT22;22957;50.824;4.360;2023-04-30T01:55:39;10.20;99.90
2391;DHT22;22957;50.824;4.360;2023-04-30T01:58:09;10.20;99.90
2391;DHT22;22957;50.824;4.360;2023-04-30T02:00:36;10.10;99.90
2391;DHT22;22957;50.824;4.360;2023-04-30T02:03:02;10.10;99.90
2391;DHT22;22957;50.824;4.360;2023-04-30T02:05:28;10.00;99.90
2391;DHT22;22957;50.824;4.360;2023-04-30T02:07:54;9.60;99.90
2391;DHT22;22957;50.824;4.360;2023-04-30T02:10:21;9.70;99.90
2391;DHT22;22957;50.824;4.360;2023-04-30T02:12:47;9.90;99.90
2391;DHT22;22957;50.824;4.360;2023-04-30T02:15:13;10.10;99.90
2391;DHT22;22957;50.824;4.360;2023-04-30T02:17:39;10.20;99.90
2391;DHT22;22957;50.824;4.360;2023-04-30T02:20:06;10.30;99.90
2391;DHT22;22957;50.824;4.360;2023-04-30T02:22:32;9.90;99.90
2391;DHT22;22957;50.824;4.360;2023-04-30T02:24:58;9.80;99.90
2391;DHT22;22957;50.824;4.360;2023-04-30T02:27:24;9.80;99.90
2391;DHT22;22957;50.824;4.360;2023-04-30T02:29:51;9.60;99.90
2391;DHT22;22957;50.824;4.360;2023-04-30T02:32:16;9.70;99.90
2391;DHT22;22957;50.824;4.360;2023-04-30T02:34:42;9.80;99.90
2391;DHT22;22957;50.824;4.360;2023-04-30T02:37:08;9.80;99.90
2391;DHT22;22957;50.824;4.360;2023-04-30T02:39:34;10.20;99.90
2391;DHT22;22957;50.824;4.360;2023-04-30T02:41:59;10.20;99.90
2391;DHT22;22957;50.824;4.360;2023-04-30T02:44:25;10.10;99.90
2391;DHT22;22957;50.824;4.360;2023-04-30T02:46:51;9.90;99.90
2391;DHT22;22957;50.824;4.360;2023-04-30T02:49:17;9.80;99.90
2391;DHT22;22957;50.824;4.360;2023-04-30T02:51:42;9.60;99.90
2391;DHT22;22957;50.824;4.360;2023-04-30T02:54:08;9.50;99.90
2391;DHT22;22957;50.824;4.360;2023-04-30T02:56:34;9.70;99.90
2391;DHT22;22957;50.824;4.360;2023-04-30T02:58:59;9.50;99.90
2391;DHT22;22957;50.824;4.360;2023-04-30T03:01:25;9.40;99.90
2391;DHT22;22957;50.824;4.360;2023-04-30T03:03:51;9.60;99.90
2391;DHT22;22957;50.824;4.360;2023-04-30T03:06:17;9.40;99.90
2391;DHT22;22957;50.824;4.360;2023-04-30T03:08:43;9.30;99.90
2391;DHT22;22957;50.824;4.360;2023-04-30T03:11:09;9.50;99.90
2391;DHT22;22957;50.824;4.360;2023-04-30T03:13:34;9.20;99.90
2391;DHT22;22957;50.824;4.360;2023-04-30T03:16:01;9.10;99.90
2391;DHT22;22957;50.824;4.360;2023-04-30T03:18:29;8.90;99.90
2391;DHT22;22957;50.824;4.360;2023-04-30T03:20:55;8.90;99.90
2391;DHT22;22957;50.824;4.360;2023-04-30T03:23:21;9.10;99.90
2391;DHT22;22957;50.824;4.360;2023-04-30T03:25:49;9.40;99.90
2391;DHT22;22957;50.824;4.360;2023-04-30T03:28:15;9.30;99.90
2391;DHT22;22957;50.824;4.360;2023-04-30T03:30:41;9.00;99.90
2391;DHT22;22957;50.824;4.360;2023-04-30T03:33:07;9.10;99.90
2391;DHT22;22957;50.824;4.360;2023-04-30T03:35:33;9.20;99.90
2391;DHT22;22957;50.824;4.360;2023-04-30T03:38:00;9.00;99.90
2391;DHT22;22957;50.824;4.360;2023-04-30T03:40:26;8.90;99.90
2391;DHT22;22957;50.824;4.360;2023-04-30T03:42:51;8.90;99.90
2391;DHT22;22957;50.824;4.360;2023-04-30T03:45:17;8.90;99.90
2391;DHT22;22957;50.824;4.360;2023-04-30T03:47:43;8.90;99.90
2391;DHT22;22957;50.824;4.360;2023-04-30T03:50:09;9.20;99.90
2391;DHT22;22957;50.824;4.360;2023-04-30T03:52:35;9.00;99.90
2391;DHT22;22957;50.824;4.360;2023-04-30T03:55:04;8.90;99.90
2391;DHT22;22957;50.824;4.360;2023-04-30T03:57:30;8.90;99.90
2391;DHT22;22957;50.824;4.360;2023-04-30T03:59:56;9.00;99.90
2391;DHT22;22957;50.824;4.360;2023-04-30T04:02:22;8.60;99.90
2391;DHT22;22957;50.824;4.360;2023-04-30T04:04:47;8.70;99.90
2391;DHT22;22957;50.824;4.360;2023-04-30T04:07:14;8.90;99.90
2391;DHT22;22957;50.824;4.360;2023-04-30T04:09:40;8.80;99.90
2391;DHT22;22957;50.824;4.360;2023-04-30T04:12:06;8.70;99.90
2391;DHT22;22957;50.824;4.360;2023-04-30T04:14:31;9.10;99.90
2391;DHT22;22957;50.824;4.360;2023-04-30T04:16:57;8.90;99.90
2391;DHT22;22957;50.824;4.360;2023-04-30T04:19:27;8.60;99.90
2391;DHT22;22957;50.824;4.360;2023-04-30T04:21:53;8.90;99.90
2391;DHT22;22957;50.824;4.360;2023-04-30T04:24:18;8.80;99.90
2391;DHT22;22957;50.824;4.360;2023-04-30T04:26:44;8.80;99.90
2391;DHT22;22957;50.824;4.360;2023-04-30T04:29:10;8.80;99.90
2391;DHT22;22957;50.824;4.360;2023-04-30T04:31:36;8.70;99.90
2391;DHT22;22957;50.824;4.360;2023-04-30T04:34:03;8.60;99.90
2391;DHT22;22957;50.824;4.360;2023-04-30T04:36:30;9.00;99.90
2391;DHT22;22957;50.824;4.360;2023-04-30T04:38:56;8.90;99.90
2391;DHT22;22957;50.824;4.360;2023-04-30T04:41:32;8.90;99.90
2391;DHT22;22957;50.824;4.360;2023-04-30T04:43:59;8.80;99.90
2391;DHT22;22957;50.824;4.360;2023-04-30T04:46:26;8.70;99.90
2391;DHT22;22957;50.824;4.360;2023-04-30T04:48:52;8.80;99.90
2391;DHT22;22957;50.824;4.360;2023-04-30T04:51:18;9.00;99.90
2391;DHT22;22957;50.824;4.360;2023-04-30T04:53:44;9.30;99.90
2391;DHT22;22957;50.824;4.360;2023-04-30T04:56:10;9.50;99.90
2391;DHT22;22957;50.824;4.360;2023-04-30T04:58:35;9.20;99.90
2391;DHT22;22957;50.824;4.360;2023-04-30T05:01:01;9.10;99.90
2391;DHT22;22957;50.824;4.360;2023-04-30T05:03:29;9.40;99.90
2391;DHT22;22957;50.824;4.360;2023-04-30T05:05:57;9.20;99.90
2391;DHT22;22957;50.824;4.360;2023-04-30T05:08:23;9.40;99.90
2391;DHT22;22957;50.824;4.360;2023-04-30T05:10:49;10.00;99.90
2391;DHT22;22957;50.824;4.360;2023-04-30T05:13:14;10.10;99.90
2391;DHT22;22957;50.824;4.360;2023-04-30T05:15:40;9.70;99.90
2391;DHT22;22957;50.824;4.360;2023-04-30T05:18:05;9.50;99.90
2391;DHT22;22957;50.824;4.360;2023-04-30T05:20:31;9.60;99.90
2391;DHT22;22957;50.824;4.360;2023-04-30T05:22:57;9.40;99.90
2391;DHT22;22957;50.824;4.360;2023-04-30T05:25:22;9.50;99.90
2391;DHT22;22957;50.824;4.360;2023-04-30T05:27:48;10.10;99.90
2391;DHT22;22957;50.824;4.360;2023-04-30T05:30:14;10.10;99.90
2391;DHT22;22957;50.824;4.360;2023-04-30T05:32:43;10.20;99.90
2391;DHT22;22957;50.824;4.360;2023-04-30T05:35:15;10.40;99.90
2391;DHT22;22957;50.824;4.360;2023-04-30T05:37:41;10.10;99.90
2391;DHT22;22957;50.824;4.360;2023-04-30T05:40:07;10.50;99.90
2391;DHT22;22957;50.824;4.360;2023-04-30T05:42:33;10.30;99.90
2391;DHT22;22957;50.824;4.360;2023-04-30T05:45:00;10.50;99.90
2391;DHT22;22957;50.824;4.360;2023-04-30T05:47:25;10.50;99.90
2391;DHT22;22957;50.824;4.360;2023-04-30T05:49:51;10.50;99.90
2391;DHT22;22957;50.824;4.360;2023-04-30T05:52:16;10.60;99.90
2391;DHT22;22957;50.824;4.360;2023-04-30T05:54:42;10.40;99.90
2391;DHT22;22957;50.824;4.360;2023-04-30T05:57:08;10.40;99.90
2391;DHT22;22957;50.824;4.360;2023-04-30T05:59:33;10.30;99.90
2391;DHT22;22957;50.824;4.360;2023-04-30T06:01:59;10.20;99.90
2391;DHT22;22957;50.824;4.360;2023-04-30T06:04:25;10.00;99.90
2391;DHT22;22957;50.824;4.360;2023-04-30T06:06:50;10.30;99.90
2391;DHT22;22957;50.824;4.360;2023-04-30T06:09:16;11.10;99.90
2391;DHT22;22957;50.824;4.360;2023-04-30T06:11:42;11.40;99.90
2391;DHT22;22957;50.824;4.360;2023-04-30T06:14:09;11.80;99.90
2391;DHT22;22957;50.824;4.360;2023-04-30T06:16:35;11.50;99.90
2391;DHT22;22957;50.824;4.360;2023-04-30T06:19:01;11.80;99.90
2391;DHT22;22957;50.824;4.360;2023-04-30T06:21:26;11.60;99.90
2391;DHT22;22957;50.824;4.360;2023-04-30T06:23:52;12.80;99.90
2391;DHT22;22957;50.824;4.360;2023-04-30T06:26:18;12.10;99.90
2391;DHT22;22957;50.824;4.360;2023-04-30T06:28:44;12.40;99.90
2391;DHT22;22957;50.824;4.360;2023-04-30T06:31:11;12.70;99.90
2391;DHT22;22957;50.824;4.360;2023-04-30T06:33:36;12.70;99.90
2391;DHT22;22957;50.824;4.360;2023-04-30T06:36:02;12.70;99.90
2391;DHT22;22957;50.824;4.360;2023-04-30T06:38:28;12.70;99.90
2391;DHT22;22957;50.824;4.360;2023-04-30T06:40:54;13.20;99.90
2391;DHT22;22957;50.824;4.360;2023-04-30T06:43:20;13.90;99.90
2391;DHT22;22957;50.824;4.360;2023-04-30T06:45:46;14.10;99.90
2391;DHT22;22957;50.824;4.360;2023-04-30T06:48:11;15.10;99.90
2391;DHT22;22957;50.824;4.360;2023-04-30T06:50:37;15.80;99.90
2391;DHT22;22957;50.824;4.360;2023-04-30T06:53:12;14.70;99.90
2391;DHT22;22957;50.824;4.360;2023-04-30T06:55:39;15.40;99.90
2391;DHT22;22957;50.824;4.360;2023-04-30T06:58:05;16.20;99.90
2391;DHT22;22957;50.824;4.360;2023-04-30T07:00:31;16.70;99.90
2391;DHT22;22957;50.824;4.360;2023-04-30T07:02:57;16.30;99.90
2391;DHT22;22957;50.824;4.360;2023-04-30T07:05:27;15.80;99.90
2391;DHT22;22957;50.824;4.360;2023-04-30T07:07:52;16.00;99.90
2391;DHT22;22957;50.824;4.360;2023-04-30T07:10:18;15.60;99.90
2391;DHT22;22957;50.824;4.360;2023-04-30T07:12:44;15.10;99.90
2391;DHT22;22957;50.824;4.360;2023-04-30T07:15:10;14.80;99.90
2391;DHT22;22957;50.824;4.360;2023-04-30T07:17:36;15.00;99.90
2391;DHT22;22957;50.824;4.360;2023-04-30T07:20:05;15.10;99.90
2391;DHT22;22957;50.824;4.360;2023-04-30T07:22:31;14.40;99.90
2391;DHT22;22957;50.824;4.360;2023-04-30T07:24:57;15.60;99.90
2391;DHT22;22957;50.824;4.360;2023-04-30T07:27:23;15.60;99.90
2391;DHT22;22957;50.824;4.360;2023-04-30T07:29:48;15.90;99.90
2391;DHT22;22957;50.824;4.360;2023-04-30T07:32:14;16.90;99.90
2391;DHT22;22957;50.824;4.360;2023-04-30T07:34:40;15.20;99.90
2391;DHT22;22957;50.824;4.360;2023-04-30T07:37:07;16.40;99.90
2391;DHT22;22957;50.824;4.360;2023-04-30T07:39:33;19.20;99.90
2391;DHT22;22957;50.824;4.360;2023-04-30T07:41:59;17.10;99.90
2391;DHT22;22957;50.824;4.360;2023-04-30T07:44:27;18.90;99.90
2391;DHT22;22957;50.824;4.360;2023-04-30T07:46:53;18.00;99.90
2391;DHT22;22957;50.824;4.360;2023-04-30T07:49:18;19.20;99.90
2391;DHT22;22957;50.824;4.360;2023-04-30T07:51:44;19.50;99.90
2391;DHT22;22957;50.824;4.360;2023-04-30T07:54:10;19.20;99.90
2391;DHT22;22957;50.824;4.360;2023-04-30T07:56:36;17.00;99.90
2391;DHT22;22957;50.824;4.360;2023-04-30T07:59:02;18.00;99.90
2391;DHT22;22957;50.824;4.360;2023-04-30T08:01:27;18.80;99.90
2391;DHT22;22957;50.824;4.360;2023-04-30T08:03:53;17.60;99.90
2391;DHT22;22957;50.824;4.360;2023-04-30T08:06:19;16.70;99.90
2391;DHT22;22957;50.824;4.360;2023-04-30T08:08:44;18.80;99.90
2391;DHT22;22957;50.824;4.360;2023-04-30T08:11:10;17.50;99.90
2391;DHT22;22957;50.824;4.360;2023-04-30T08:13:36;18.80;99.90
2391;DHT22;22957;50.824;4.360;2023-04-30T08:16:02;18.70;99.90
2391;DHT22;22957;50.824;4.360;2023-04-30T08:18:28;20.80;99.90
2391;DHT22;22957;50.824;4.360;2023-04-30T08:20:54;19.60;99.90
2391;DHT22;22957;50.824;4.360;2023-04-30T08:23:20;18.00;99.90
2391;DHT22;22957;50.824;4.360;2023-04-30T08:25:45;16.80;99.90
2391;DHT22;22957;50.824;4.360;2023-04-30T08:28:11;17.30;99.90
2391;DHT22;22957;50.824;4.360;2023-04-30T08:30:37;15.90;99.90
2391;DHT22;22957;50.824;4.360;2023-04-30T08:33:03;16.10;99.90
2391;DHT22;22957;50.824;4.360;2023-04-30T08:35:28;17.10;99.90
2391;DHT22;22957;50.824;4.360;2023-04-30T08:37:54;17.60;99.90
2391;DHT22;22957;50.824;4.360;2023-04-30T08:40:20;16.50;99.90
2391;DHT22;22957;50.824;4.360;2023-04-30T08:42:56;16.60;99.90
2391;DHT22;22957;50.824;4.360;2023-04-30T08:45:24;16.50;99.90
2391;DHT22;22957;50.824;4.360;2023-04-30T08:47:51;16.70;99.90
2391;DHT22;22957;50.824;4.360;2023-04-30T08:50:17;15.90;99.90
2391;DHT22;22957;50.824;4.360;2023-04-30T08:52:42;17.60;99.90
2391;DHT22;22957;50.824;4.360;2023-04-30T08:55:08;18.30;99.90
2391;DHT22;22957;50.824;4.360;2023-04-30T08:57:36;19.00;99.90
2391;DHT22;22957;50.824;4.360;2023-04-30T09:00:02;18.70;99.90
2391;DHT22;22957;50.824;4.360;2023-04-30T09:02:32;20.00;99.90
2391;DHT22;22957;50.824;4.360;2023-04-30T09:04:57;19.00;99.90
2391;DHT22;22957;50.824;4.360;2023-04-30T09:07:23;16.70;99.90
2391;DHT22;22957;50.824;4.360;2023-04-30T09:09:52;18.10;99.90
2391;DHT22;22957;50.824;4.360;2023-04-30T09:12:18;18.70;99.90
2391;DHT22;22957;50.824;4.360;2023-04-30T09:15:01;18.90;99.90
2391;DHT22;22957;50.824;4.360;2023-04-30T09:17:28;19.70;99.90
2391;DHT22;22957;50.824;4.360;2023-04-30T09:19:54;19.30;99.90
2391;DHT22;22957;50.824;4.360;2023-04-30T09:22:23;19.40;99.90
2391;DHT22;22957;50.824;4.360;2023-04-30T09:24:50;17.50;99.90
2391;DHT22;22957;50.824;4.360;2023-04-30T09:27:17;17.80;99.90
2391;DHT22;22957;50.824;4.360;2023-04-30T09:29:43;19.70;99.90
2391;DHT22;22957;50.824;4.360;2023-04-30T09:32:09;20.60;99.00
2391;DHT22;22957;50.824;4.360;2023-04-30T09:34:36;20.60;99.90
2391;DHT22;22957;50.824;4.360;2023-04-30T09:37:01;19.70;99.90
2391;DHT22;22957;50.824;4.360;2023-04-30T09:39:28;17.60;99.90
2391;DHT22;22957;50.824;4.360;2023-04-30T09:42:09;18.00;99.90
2391;DHT22;22957;50.824;4.360;2023-04-30T09:44:37;18.80;99.90
2391;DHT22;22957;50.824;4.360;2023-04-30T09:47:03;18.90;99.90
2391;DHT22;22957;50.824;4.360;2023-04-30T09:49:29;16.40;99.90
2391;DHT22;22957;50.824;4.360;2023-04-30T09:51:56;16.90;99.90
2391;DHT22;22957;50.824;4.360;2023-04-30T09:54:25;19.00;99.90
2391;DHT22;22957;50.824;4.360;2023-04-30T09:56:59;20.70;99.90
2391;DHT22;22957;50.824;4.360;2023-04-30T09:59:33;22.40;99.90
2391;DHT22;22957;50.824;4.360;2023-04-30T10:02:06;20.20;98.00
2391;DHT22;22957;50.824;4.360;2023-04-30T10:04:35;20.70;99.50
2391;DHT22;22957;50.824;4.360;2023-04-30T10:07:21;19.20;99.30
2391;DHT22;22957;50.824;4.360;2023-04-30T10:09:50;19.60;98.70
2391;DHT22;22957;50.824;4.360;2023-04-30T10:12:23;21.00;99.10
2391;DHT22;22957;50.824;4.360;2023-04-30T10:14:57;22.10;97.60
2391;DHT22;22957;50.824;4.360;2023-04-30T10:17:26;19.70;97.90
2391;DHT22;22957;50.824;4.360;2023-04-30T10:20:01;20.10;98.80
2391;DHT22;22957;50.824;4.360;2023-04-30T10:22:29;19.80;98.80
2391;DHT22;22957;50.824;4.360;2023-04-30T10:24:55;23.20;96.80
2391;DHT22;22957;50.824;4.360;2023-04-30T10:27:21;19.10;96.80
2391;DHT22;22957;50.824;4.360;2023-04-30T10:29:48;20.70;95.80
2391;DHT22;22957;50.824;4.360;2023-04-30T10:32:14;17.80;97.20
2391;DHT22;22957;50.824;4.360;2023-04-30T10:34:59;18.80;95.90
2391;DHT22;22957;50.824;4.360;2023-04-30T10:37:41;19.90;96.50
2391;DHT22;22957;50.824;4.360;2023-04-30T10:40:08;18.00;98.30
2391;DHT22;22957;50.824;4.360;2023-04-30T10:42:34;18.00;97.40
2391;DHT22;22957;50.824;4.360;2023-04-30T10:45:04;18.00;98.60
2391;DHT22;22957;50.824;4.360;2023-04-30T10:47:30;18.70;98.20
2391;DHT22;22957;50.824;4.360;2023-04-30T10:50:03;18.70;97.90
2391;DHT22;22957;50.824;4.360;2023-04-30T10:52:29;17.70;99.60
2391;DHT22;22957;50.824;4.360;2023-04-30T10:54:55;17.10;98.20
2391;DHT22;22957;50.824;4.360;2023-04-30T10:57:21;18.10;98.70
2391;DHT22;22957;50.824;4.360;2023-04-30T11:00:16;17.60;98.90
2391;DHT22;22957;50.824;4.360;2023-04-30T11:02:48;17.50;99.10
2391;DHT22;22957;50.824;4.360;2023-04-30T11:05:15;17.80;99.10
2391;DHT22;22957;50.824;4.360;2023-04-30T11:08:00;19.40;97.70
2391;DHT22;22957;50.824;4.360;2023-04-30T11:10:32;18.40;97.10
2391;DHT22;22957;50.824;4.360;2023-04-30T11:13:05;18.10;97.20
2391;DHT22;22957;50.824;4.360;2023-04-30T11:15:39;18.10;96.50
2391;DHT22;22957;50.824;4.360;2023-04-30T11:18:07;18.50;96.70
2391;DHT22;22957;50.824;4.360;2023-04-30T11:20:48;19.10;97.50
2391;DHT22;22957;50.824;4.360;2023-04-30T11:23:14;19.40;96.00
2391;DHT22;22957;50.824;4.360;2023-04-30T11:25:45;20.70;96.20
2391;DHT22;22957;50.824;4.360;2023-04-30T11:28:16;22.20;94.60
2391;DHT22;22957;50.824;4.360;2023-04-30T11:30:53;22.30;93.50
2391;DHT22;22957;50.824;4.360;2023-04-30T11:33:20;21.90;94.10
2391;DHT22;22957;50.824;4.360;2023-04-30T11:35:48;23.30;92.80
2391;DHT22;22957;50.824;4.360;2023-04-30T11:38:21;19.50;94.40
2391;DHT22;22957;50.824;4.360;2023-04-30T11:40:47;17.70;95.10
2391;DHT22;22957;50.824;4.360;2023-04-30T11:43:33;17.70;96.30
2391;DHT22;22957;50.824;4.360;2023-04-30T11:46:03;17.80;96.60
2391;DHT22;22957;50.824;4.360;2023-04-30T11:48:34;18.70;95.90
2391;DHT22;22957;50.824;4.360;2023-04-30T11:51:02;18.10;96.70
2391;DHT22;22957;50.824;4.360;2023-04-30T11:53:29;17.80;97.30
2391;DHT22;22957;50.824;4.360;2023-04-30T11:55:55;18.70;96.20
2391;DHT22;22957;50.824;4.360;2023-04-30T11:58:21;18.40;96.90
2391;DHT22;22957;50.824;4.360;2023-04-30T12:00:47;18.10;95.80
2391;DHT22;22957;50.824;4.360;2023-04-30T12:03:14;20.20;95.50
2391;DHT22;22957;50.824;4.360;2023-04-30T12:05:41;21.10;94.30
2391;DHT22;22957;50.824;4.360;2023-04-30T12:08:07;20.70;93.20
2391;DHT22;22957;50.824;4.360;2023-04-30T12:10:36;20.40;93.80
2391;DHT22;22957;50.824;4.360;2023-04-30T12:13:02;19.30;94.60
2391;DHT22;22957;50.824;4.360;2023-04-30T12:15:28;19.50;95.60
2391;DHT22;22957;50.824;4.360;2023-04-30T12:17:55;18.90;95.30
2391;DHT22;22957;50.824;4.360;2023-04-30T12:20:23;18.20;95.80
2391;DHT22;22957;50.824;4.360;2023-04-30T12:22:49;19.10;93.70
2391;DHT22;22957;50.824;4.360;2023-04-30T12:25:17;18.50;95.20
2391;DHT22;22957;50.824;4.360;2023-04-30T12:27:52;20.10;95.30
2391;DHT22;22957;50.824;4.360;2023-04-30T12:30:20;19.90;95.10
2391;DHT22;22957;50.824;4.360;2023-04-30T12:32:49;21.30;94.20
2391;DHT22;22957;50.824;4.360;2023-04-30T12:35:20;18.40;93.60
2391;DHT22;22957;50.824;4.360;2023-04-30T12:38:00;18.20;95.20
2391;DHT22;22957;50.824;4.360;2023-04-30T12:40:27;18.80;95.50
2391;DHT22;22957;50.824;4.360;2023-04-30T12:43:03;18.30;94.90
2391;DHT22;22957;50.824;4.360;2023-04-30T12:45:49;19.40;94.80
2391;DHT22;22957;50.824;4.360;2023-04-30T12:48:20;19.00;93.50
2391;DHT22;22957;50.824;4.360;2023-04-30T12:50:54;18.40;93.60
2391;DHT22;22957;50.824;4.360;2023-04-30T12:53:20;17.80;94.20
2391;DHT22;22957;50.824;4.360;2023-04-30T12:56:09;18.40;94.20
2391;DHT22;22957;50.824;4.360;2023-04-30T12:58:36;17.90;95.40
2391;DHT22;22957;50.824;4.360;2023-04-30T13:01:02;19.10;94.90
2391;DHT22;22957;50.824;4.360;2023-04-30T13:03:28;18.70;94.90
2391;DHT22;22957;50.824;4.360;2023-04-30T13:05:54;20.10;94.30
2391;DHT22;22957;50.824;4.360;2023-04-30T13:08:20;18.20;94.40
2391;DHT22;22957;50.824;4.360;2023-04-30T13:10:46;19.10;94.70
2391;DHT22;22957;50.824;4.360;2023-04-30T13:13:14;18.50;94.20
2391;DHT22;22957;50.824;4.360;2023-04-30T13:15:41;18.00;94.00
2391;DHT22;22957;50.824;4.360;2023-04-30T13:18:07;18.60;93.90
2391;DHT22;22957;50.824;4.360;2023-04-30T13:20:37;19.00;94.70
2391;DHT22;22957;50.824;4.360;2023-04-30T13:23:03;19.30;93.30
2391;DHT22;22957;50.824;4.360;2023-04-30T13:25:30;18.60;93.80
2391;DHT22;22957;50.824;4.360;2023-04-30T13:27:56;18.50;95.00
2391;DHT22;22957;50.824;4.360;2023-04-30T13:30:23;19.00;94.50
2391;DHT22;22957;50.824;4.360;2023-04-30T13:32:49;18.90;94.00
2391;DHT22;22957;50.824;4.360;2023-04-30T13:35:15;18.50;94.70
2391;DHT22;22957;50.824;4.360;2023-04-30T13:37:41;19.60;93.80
2391;DHT22;22957;50.824;4.360;2023-04-30T13:40:07;19.70;93.70
2391;DHT22;22957;50.824;4.360;2023-04-30T13:42:36;20.00;93.00
2391;DHT22;22957;50.824;4.360;2023-04-30T13:45:03;20.10;93.10
2391;DHT22;22957;50.824;4.360;2023-04-30T13:47:29;19.40;92.10
2391;DHT22;22957;50.824;4.360;2023-04-30T13:49:55;19.10;93.30
2391;DHT22;22957;50.824;4.360;2023-04-30T13:52:20;19.90;93.80
2391;DHT22;22957;50.824;4.360;2023-04-30T13:54:46;19.60;92.50
2391;DHT22;22957;50.824;4.360;2023-04-30T13:57:12;19.70;93.50
2391;DHT22;22957;50.824;4.360;2023-04-30T13:59:37;20.60;92.50
2391;DHT22;22957;50.824;4.360;2023-04-30T14:02:03;19.30;92.80
2391;DHT22;22957;50.824;4.360;2023-04-30T14:04:29;19.50;92.50
2391;DHT22;22957;50.824;4.360;2023-04-30T14:06:55;20.20;92.00
2391;DHT22;22957;50.824;4.360;2023-04-30T14:09:21;20.60;91.20
2391;DHT22;22957;50.824;4.360;2023-04-30T14:11:47;20.70;90.80
2391;DHT22;22957;50.824;4.360;2023-04-30T14:14:13;21.40;90.80
2391;DHT22;22957;50.824;4.360;2023-04-30T14:16:39;20.50;90.50
2391;DHT22;22957;50.824;4.360;2023-04-30T14:19:04;19.90;91.40
2391;DHT22;22957;50.824;4.360;2023-04-30T14:21:30;20.00;91.80
2391;DHT22;22957;50.824;4.360;2023-04-30T14:23:57;19.20;91.90
2391;DHT22;22957;50.824;4.360;2023-04-30T14:26:23;19.40;92.50
2391;DHT22;22957;50.824;4.360;2023-04-30T14:28:49;20.00;90.80
2391;DHT22;22957;50.824;4.360;2023-04-30T14:31:14;21.20;91.20
2391;DHT22;22957;50.824;4.360;2023-04-30T14:33:40;18.70;91.70
2391;DHT22;22957;50.824;4.360;2023-04-30T14:36:06;18.70;92.70
2391;DHT22;22957;50.824;4.360;2023-04-30T14:38:32;18.50;92.60
2391;DHT22;22957;50.824;4.360;2023-04-30T14:40:58;19.20;93.00
2391;DHT22;22957;50.824;4.360;2023-04-30T14:43:24;20.50;91.80
2391;DHT22;22957;50.824;4.360;2023-04-30T14:45:51;20.10;90.90
2391;DHT22;22957;50.824;4.360;2023-04-30T14:48:17;20.40;92.00
2391;DHT22;22957;50.824;4.360;2023-04-30T14:50:43;20.00;90.60
2391;DHT22;22957;50.824;4.360;2023-04-30T14:53:09;19.50;91.50
2391;DHT22;22957;50.824;4.360;2023-04-30T14:55:36;18.80;91.90
2391;DHT22;22957;50.824;4.360;2023-04-30T14:58:02;18.50;92.60
2391;DHT22;22957;50.824;4.360;2023-04-30T15:00:29;20.10;91.90
2391;DHT22;22957;50.824;4.360;2023-04-30T15:02:55;20.00;91.50
2391;DHT22;22957;50.824;4.360;2023-04-30T15:05:21;19.90;91.70
2391;DHT22;22957;50.824;4.360;2023-04-30T15:07:47;20.20;91.80
2391;DHT22;22957;50.824;4.360;2023-04-30T15:10:12;20.10;91.50
2391;DHT22;22957;50.824;4.360;2023-04-30T15:12:38;20.30;90.80
2391;DHT22;22957;50.824;4.360;2023-04-30T15:15:05;20.20;91.50
2391;DHT22;22957;50.824;4.360;2023-04-30T15:17:31;21.00;91.50
2391;DHT22;22957;50.824;4.360;2023-04-30T15:20:02;20.00;91.30
2391;DHT22;22957;50.824;4.360;2023-04-30T15:22:29;21.20;91.00
2391;DHT22;22957;50.824;4.360;2023-04-30T15:24:54;21.10;90.50
2391;DHT22;22957;50.824;4.360;2023-04-30T15:27:22;20.50;90.50
2391;DHT22;22957;50.824;4.360;2023-04-30T15:29:48;19.30;91.20
2391;DHT22;22957;50.824;4.360;2023-04-30T15:32:13;19.40;92.00
2391;DHT22;22957;50.824;4.360;2023-04-30T15:34:39;19.30;91.60
2391;DHT22;22957;50.824;4.360;2023-04-30T15:37:05;19.30;91.40
2391;DHT22;22957;50.824;4.360;2023-04-30T15:39:31;19.50;91.70
2391;DHT22;22957;50.824;4.360;2023-04-30T15:41:56;19.90;92.10
2391;DHT22;22957;50.824;4.360;2023-04-30T15:44:22;19.40;91.40
2391;DHT22;22957;50.824;4.360;2023-04-30T15:46:48;20.20;91.00
2391;DHT22;22957;50.824;4.360;2023-04-30T15:49:14;19.80;91.50
2391;DHT22;22957;50.824;4.360;2023-04-30T15:51:40;19.90;91.80
2391;DHT22;22957;50.824;4.360;2023-04-30T15:54:06;18.40;91.50
2391;DHT22;22957;50.824;4.360;2023-04-30T15:56:35;18.90;92.10
2391;DHT22;22957;50.824;4.360;2023-04-30T15:59:00;18.70;91.90
2391;DHT22;22957;50.824;4.360;2023-04-30T16:01:26;18.40;92.10
2391;DHT22;22957;50.824;4.360;2023-04-30T16:03:52;18.60;92.40